createdAt,value
2023-06-29T00:00:10.459Z,0.00
2023-06-29T00:01:10.912Z,0.00
2023-06-29T00:02:10.740Z,0.00
2023-06-29T00:03:10.938Z,0.00
2023-06-29T00:04:11.058Z,0.00
2023-06-29T00:05:11.136Z,0.00
2023-06-29T00:06:11.304Z,0.00
2023-06-29T00:07:11.420Z,0.00
2023-06-29T00:08:11.550Z,0.00
2023-06-29T00:09:11.694Z,0.00
2023-06-29T00:10:11.801Z,0.00
2023-06-29T00:11:11.917Z,0.00
2023-06-29T00:12:12.078Z,0.00
2023-06-29T00:13:12.236Z,0.00
2023-06-29T00:14:12.322Z,0.00
2023-06-29T00:15:12.464Z,0.00
2023-06-29T00:16:12.670Z,0.00
2023-06-29T00:17:12.714Z,0.00
2023-06-29T00:18:12.889Z,0.00
2023-06-29T00:19:13.047Z,0.00
2023-06-29T00:20:13.122Z,0.00
2023-06-29T00:21:13.244Z,0.00
2023-06-29T00:22:13.380Z,0.00
2023-06-29T00:23:13.545Z,0.00
2023-06-29T00:24:13.679Z,0.00
2023-06-29T00:25:13.798Z,0.00
2023-06-29T00:26:13.944Z,0.00
2023-06-29T00:27:14.089Z,0.00
2023-06-29T00:28:14.281Z,0.00
2023-06-29T00:29:14.380Z,0.00
2023-06-29T00:30:14.515Z,0.00
2023-06-29T00:31:14.644Z,0.00
2023-06-29T00:32:14.882Z,0.00
2023-06-29T00:33:14.925Z,0.00
2023-06-29T00:34:15.020Z,0.00
2023-06-29T00:35:15.152Z,0.00
2023-06-29T00:36:15.292Z,0.00
2023-06-29T00:37:15.470Z,0.00
2023-06-29T00:38:15.555Z,0.00
2023-06-29T00:39:15.697Z,0.00
2023-06-29T00:40:15.870Z,0.00
2023-06-29T00:41:15.991Z,0.00
2023-06-29T00:42:16.090Z,0.00
2023-06-29T00:43:16.363Z,0.00
2023-06-29T00:44:16.428Z,0.00
2023-06-29T00:45:16.544Z,0.00
2023-06-29T00:46:16.670Z,0.00
2023-06-29T00:47:16.784Z,0.00
2023-06-29T00:48:16.898Z,0.00
2023-06-29T00:49:17.043Z,0.00
2023-06-29T00:50:17.210Z,0.00
2023-06-29T00:51:17.342Z,0.00
2023-06-29T00:52:17.439Z,0.00
2023-06-29T00:53:17.552Z,0.00
2023-06-29T00:54:17.674Z,0.00
2023-06-29T00:55:17.764Z,0.00
2023-06-29T00:56:17.948Z,0.00
2023-06-29T00:57:18.048Z,0.00
2023-06-29T00:58:18.181Z,0.00
2023-06-29T00:59:18.317Z,0.00
2023-06-29T01:00:18.506Z,0.00
2023-06-29T01:01:18.701Z,0.00
2023-06-29T01:02:18.723Z,0.00
2023-06-29T01:03:19.045Z,0.00
2023-06-29T01:04:18.979Z,0.00
2023-06-29T01:05:19.142Z,0.00
2023-06-29T01:06:19.286Z,0.00
2023-06-29T01:07:19.424Z,0.00
2023-06-29T01:08:19.527Z,0.00
2023-06-29T01:09:19.660Z,0.00
2023-06-29T01:10:19.832Z,0.00
2023-06-29T01:11:19.949Z,0.00
2023-06-29T01:12:21.030Z,0.00
2023-06-29T01:13:20.179Z,0.00
2023-06-29T01:14:20.310Z,0.00
2023-06-29T01:15:20.454Z,0.00
2023-06-29T01:16:20.641Z,0.00
2023-06-29T01:17:20.722Z,0.00
2023-06-29T01:18:20.877Z,0.00
2023-06-29T01:19:21.003Z,0.00
2023-06-29T01:20:21.163Z,0.00
2023-06-29T01:21:21.320Z,0.00
2023-06-29T01:22:21.449Z,0.00
2023-06-29T01:23:21.595Z,0.00
2023-06-29T01:24:21.670Z,0.00
2023-06-29T01:25:21.808Z,0.00
2023-06-29T01:26:22.016Z,0.00
2023-06-29T01:27:22.061Z,0.00
2023-06-29T01:28:22.198Z,0.00
2023-06-29T01:29:22.316Z,0.00
2023-06-29T01:30:22.457Z,0.00
2023-06-29T01:31:22.720Z,0.00
2023-06-29T01:32:22.774Z,0.00
2023-06-29T01:33:22.869Z,0.00
2023-06-29T01:34:23.016Z,0.00
2023-06-29T01:35:23.197Z,0.00
2023-06-29T01:36:23.329Z,0.00
2023-06-29T01:37:23.407Z,0.00
2023-06-29T01:38:23.530Z,0.00
2023-06-29T01:39:23.676Z,0.00
2023-06-29T01:40:23.810Z,0.00
2023-06-29T01:41:23.953Z,0.00
2023-06-29T01:42:24.086Z,0.00
2023-06-29T01:43:24.225Z,0.00
2023-06-29T01:44:24.351Z,0.00
2023-06-29T01:45:24.496Z,0.00
2023-06-29T01:46:24.735Z,0.00
2023-06-29T01:47:24.772Z,0.00
2023-06-29T01:48:24.881Z,0.00
2023-06-29T01:49:25.018Z,0.00
2023-06-29T01:50:25.110Z,0.00
2023-06-29T01:51:25.604Z,0.00
2023-06-29T01:52:25.381Z,0.00
2023-06-29T01:53:25.527Z,0.00
2023-06-29T01:54:25.620Z,0.00
2023-06-29T01:55:25.760Z,0.00
2023-06-29T01:56:25.931Z,0.00
2023-06-29T01:57:26.031Z,0.00
2023-06-29T01:58:26.127Z,0.00
2023-06-29T01:59:26.270Z,0.00
2023-06-29T02:00:26.398Z,0.00
2023-06-29T02:01:26.567Z,0.00
2023-06-29T02:02:26.758Z,0.00
2023-06-29T02:03:26.914Z,0.00
2023-06-29T02:04:26.929Z,0.00
2023-06-29T02:05:27.070Z,0.00
2023-06-29T02:06:27.208Z,0.00
2023-06-29T02:07:27.600Z,0.00
2023-06-29T02:08:27.487Z,0.00
2023-06-29T02:09:27.640Z,0.00
2023-06-29T02:10:27.780Z,0.00
2023-06-29T02:11:27.915Z,0.00
2023-06-29T02:12:28.088Z,0.00
2023-06-29T02:13:28.187Z,0.00
2023-06-29T02:14:28.261Z,0.00
2023-06-29T02:15:28.596Z,0.00
2023-06-29T02:16:28.555Z,0.00
2023-06-29T02:17:28.700Z,0.00
2023-06-29T02:18:28.787Z,0.00
2023-06-29T02:19:28.932Z,0.00
2023-06-29T02:20:29.091Z,0.00
2023-06-29T02:21:29.183Z,0.00
2023-06-29T02:22:29.399Z,0.00
2023-06-29T02:23:29.449Z,0.00
2023-06-29T02:24:29.597Z,0.00
2023-06-29T02:25:29.733Z,0.00
2023-06-29T02:26:29.860Z,0.00
2023-06-29T02:27:30.006Z,0.00
2023-06-29T02:28:30.129Z,0.00
2023-06-29T02:29:30.264Z,0.00
2023-06-29T02:30:30.392Z,0.00
2023-06-29T02:31:30.664Z,0.00
2023-06-29T02:32:30.845Z,0.00
2023-06-29T02:33:30.796Z,0.00
2023-06-29T02:34:30.932Z,0.00
2023-06-29T02:35:31.110Z,0.00
2023-06-29T02:36:31.196Z,0.00
2023-06-29T02:37:31.341Z,0.00
2023-06-29T02:38:31.487Z,0.00
2023-06-29T02:39:31.567Z,4.00
2023-06-29T02:40:31.711Z,4.00
2023-06-29T02:41:31.842Z,4.00
2023-06-29T02:42:31.983Z,4.00
2023-06-29T02:43:32.144Z,4.00
2023-06-29T02:44:32.417Z,4.00
2023-06-29T02:45:32.389Z,4.00
2023-06-29T02:46:32.587Z,4.00
2023-06-29T02:47:32.667Z,4.00
2023-06-29T02:48:32.817Z,0.00
2023-06-29T02:49:32.910Z,0.00
2023-06-29T02:50:33.037Z,0.00
2023-06-29T02:51:33.243Z,0.00
2023-06-29T02:52:33.646Z,4.00
2023-06-29T02:53:33.442Z,4.00
2023-06-29T02:54:33.551Z,0.00
2023-06-29T02:55:33.692Z,4.00
2023-06-29T02:56:33.874Z,4.00
2023-06-29T02:57:33.953Z,4.00
2023-06-29T02:58:34.112Z,4.00
2023-06-29T02:59:34.193Z,4.00
2023-06-29T03:00:34.325Z,8.00
2023-06-29T03:01:34.554Z,8.00
2023-06-29T03:02:34.674Z,4.00
2023-06-29T03:03:34.840Z,8.00
2023-06-29T03:04:34.856Z,8.00
2023-06-29T03:05:35.013Z,8.00
2023-06-29T03:06:35.113Z,8.00
2023-06-29T03:07:35.314Z,8.00
2023-06-29T03:08:35.397Z,12.00
2023-06-29T03:09:35.517Z,8.00
2023-06-29T03:10:35.684Z,8.00
2023-06-29T03:11:35.779Z,12.00
2023-06-29T03:12:35.909Z,12.00
2023-06-29T03:13:36.067Z,16.00
2023-06-29T03:14:36.171Z,16.00
2023-06-29T03:15:36.369Z,20.00
2023-06-29T03:16:36.474Z,20.00
2023-06-29T03:17:36.590Z,24.00
2023-06-29T03:18:36.684Z,28.00
2023-06-29T03:19:36.781Z,28.00
2023-06-29T03:20:36.944Z,36.00
2023-06-29T03:21:37.074Z,52.00
2023-06-29T03:22:37.173Z,64.00
2023-06-29T03:23:37.313Z,76.00
2023-06-29T03:24:37.525Z,100.00
2023-06-29T03:25:37.557Z,108.00
2023-06-29T03:26:37.701Z,120.00
2023-06-29T03:27:37.801Z,136.00
2023-06-29T03:28:37.893Z,148.00
2023-06-29T03:29:38.056Z,160.00
2023-06-29T03:30:38.222Z,168.00
2023-06-29T03:31:38.333Z,176.00
2023-06-29T03:32:38.455Z,176.00
2023-06-29T03:33:38.557Z,176.00
2023-06-29T03:34:38.688Z,180.00
2023-06-29T03:35:38.861Z,176.00
2023-06-29T03:36:38.979Z,176.00
2023-06-29T03:37:39.074Z,172.00
2023-06-29T03:38:39.214Z,184.00
2023-06-29T03:39:39.337Z,188.00
2023-06-29T03:40:39.470Z,200.00
2023-06-29T03:41:39.653Z,216.00
2023-06-29T03:42:39.732Z,232.00
2023-06-29T03:43:39.902Z,248.00
2023-06-29T03:44:39.988Z,272.00
2023-06-29T03:45:40.126Z,288.00
2023-06-29T03:46:40.271Z,304.00
2023-06-29T03:47:40.517Z,332.00
2023-06-29T03:48:40.732Z,356.00
2023-06-29T03:49:40.640Z,392.00
2023-06-29T03:50:40.766Z,400.00
2023-06-29T03:51:40.910Z,412.00
2023-06-29T03:52:41.040Z,448.00
2023-06-29T03:53:41.201Z,476.00
2023-06-29T03:54:41.308Z,532.00
2023-06-29T03:55:41.645Z,604.00
2023-06-29T03:56:41.588Z,608.00
2023-06-29T03:57:41.730Z,712.00
2023-06-29T03:58:41.877Z,680.00
2023-06-29T03:59:41.956Z,676.00
2023-06-29T04:00:42.107Z,656.00
2023-06-29T04:01:42.281Z,688.00
2023-06-29T04:02:42.381Z,760.00
2023-06-29T04:03:42.492Z,756.00
2023-06-29T04:04:42.633Z,668.00
2023-06-29T04:05:43.064Z,720.00
2023-06-29T04:06:42.809Z,716.00
2023-06-29T04:07:43.028Z,660.00
2023-06-29T04:08:43.071Z,620.00
2023-06-29T04:09:43.291Z,624.00
2023-06-29T04:10:43.403Z,632.00
2023-06-29T04:11:43.601Z,636.00
2023-06-29T04:12:43.612Z,668.00
2023-06-29T04:13:43.736Z,716.00
2023-06-29T04:14:43.866Z,836.00
2023-06-29T04:15:44.481Z,816.00
2023-06-29T04:16:44.240Z,904.00
2023-06-29T04:17:44.299Z,932.00
2023-06-29T04:18:44.396Z,928.00
2023-06-29T04:19:44.533Z,940.00
2023-06-29T04:20:44.680Z,980.00
2023-06-29T04:21:44.879Z,1152.00
2023-06-29T04:22:44.963Z,1272.00
2023-06-29T04:23:45.094Z,1496.00
2023-06-29T04:24:45.235Z,1672.00
2023-06-29T04:25:45.654Z,1852.00
2023-06-29T04:26:45.531Z,1904.00
2023-06-29T04:27:45.627Z,1872.00
2023-06-29T04:28:45.773Z,1904.00
2023-06-29T04:29:45.919Z,1880.00
2023-06-29T04:30:46.116Z,1824.00
2023-06-29T04:31:46.186Z,1616.00
2023-06-29T04:32:46.441Z,1684.00
2023-06-29T04:33:46.447Z,1644.00
2023-06-29T04:34:46.551Z,1532.00
2023-06-29T04:35:46.981Z,1380.00
2023-06-29T04:36:46.824Z,1288.00
2023-06-29T04:37:46.983Z,1276.00
2023-06-29T04:38:47.082Z,1172.00
2023-06-29T04:39:47.240Z,1032.00
2023-06-29T04:40:47.322Z,1044.00
2023-06-29T04:41:47.467Z,1024.00
2023-06-29T04:42:47.633Z,1020.00
2023-06-29T04:43:47.715Z,1024.00
2023-06-29T04:44:47.857Z,1048.00
2023-06-29T04:45:47.978Z,1092.00
2023-06-29T04:46:48.149Z,1120.00
2023-06-29T04:47:48.319Z,1116.00
2023-06-29T04:48:48.388Z,1112.00
2023-06-29T04:49:48.613Z,1136.00
2023-06-29T04:50:48.659Z,1152.00
2023-06-29T04:51:48.734Z,1124.00
2023-06-29T04:52:48.918Z,1120.00
2023-06-29T04:53:48.997Z,1108.00
2023-06-29T04:54:49.156Z,1164.00
2023-06-29T04:55:49.255Z,1252.00
2023-06-29T04:56:49.381Z,1252.00
2023-06-29T04:57:49.540Z,1292.00
2023-06-29T04:58:49.668Z,1332.00
2023-06-29T04:59:49.752Z,1436.00
2023-06-29T05:00:49.890Z,1512.00
2023-06-29T05:01:50.072Z,1440.00
2023-06-29T05:02:50.252Z,1384.00
2023-06-29T05:03:50.313Z,1504.00
2023-06-29T05:04:50.366Z,1500.00
2023-06-29T05:05:50.511Z,1400.00
2023-06-29T05:06:50.670Z,1516.00
2023-06-29T05:07:50.743Z,1440.00
2023-06-29T05:08:50.883Z,1388.00
2023-06-29T05:09:51.073Z,1368.00
2023-06-29T05:10:51.116Z,1284.00
2023-06-29T05:11:51.257Z,1296.00
2023-06-29T05:12:51.437Z,1336.00
2023-06-29T05:13:51.558Z,1320.00
2023-06-29T05:14:51.653Z,1392.00
2023-06-29T05:15:51.776Z,1524.00
2023-06-29T05:16:51.971Z,1512.00
2023-06-29T05:17:52.045Z,1612.00
2023-06-29T05:18:52.157Z,1576.00
2023-06-29T05:19:52.310Z,1732.00
2023-06-29T05:20:52.423Z,1740.00
2023-06-29T05:21:52.553Z,1828.00
2023-06-29T05:22:52.713Z,1848.00
2023-06-29T05:23:52.802Z,1832.00
2023-06-29T05:24:52.944Z,2048.00
2023-06-29T05:25:53.091Z,2220.00
2023-06-29T05:26:53.183Z,2320.00
2023-06-29T05:27:53.317Z,2456.00
2023-06-29T05:29:04.367Z,2980.00
2023-06-29T05:29:54.696Z,2728.00
2023-06-29T05:30:53.752Z,2804.00
2023-06-29T05:31:54.029Z,2604.00
2023-06-29T05:32:53.988Z,2372.00
2023-06-29T05:33:54.089Z,2224.00
2023-06-29T05:34:54.175Z,2152.00
2023-06-29T05:35:54.360Z,2100.00
2023-06-29T05:36:54.442Z,2100.00
2023-06-29T05:37:54.583Z,1692.00
2023-06-29T05:38:54.698Z,1716.00
2023-06-29T05:39:54.826Z,1860.00
2023-06-29T05:40:54.963Z,1752.00
2023-06-29T05:41:55.065Z,1656.00
2023-06-29T05:42:55.191Z,1692.00
2023-06-29T05:43:55.329Z,1540.00
2023-06-29T05:44:55.468Z,1360.00
2023-06-29T05:45:55.668Z,1268.00
2023-06-29T05:46:55.789Z,1168.00
2023-06-29T05:47:55.901Z,1100.00
2023-06-29T05:48:56.003Z,1108.00
2023-06-29T05:49:56.151Z,1040.00
2023-06-29T05:50:56.300Z,952.00
2023-06-29T05:51:56.383Z,960.00
2023-06-29T05:52:56.503Z,880.00
2023-06-29T05:53:56.631Z,836.00
2023-06-29T05:54:56.788Z,932.00
2023-06-29T05:55:56.919Z,888.00
2023-06-29T05:56:57.048Z,1036.00
2023-06-29T05:57:57.140Z,1100.00
2023-06-29T05:58:57.279Z,1124.00
2023-06-29T05:59:57.431Z,1224.00
2023-06-29T06:00:57.580Z,1308.00
2023-06-29T06:01:57.744Z,1656.00
2023-06-29T06:02:57.891Z,1888.00
2023-06-29T06:03:57.983Z,2316.00
2023-06-29T06:04:58.034Z,2620.00
2023-06-29T06:05:58.196Z,2804.00
2023-06-29T06:06:58.396Z,2784.00
2023-06-29T06:07:58.419Z,2708.00
2023-06-29T06:08:58.519Z,2732.00
2023-06-29T06:09:58.765Z,2720.00
2023-06-29T06:10:58.796Z,3028.00
2023-06-29T06:11:58.950Z,2612.00
2023-06-29T06:12:59.090Z,2608.00
2023-06-29T06:13:59.264Z,3032.00
2023-06-29T06:14:59.377Z,2720.00
2023-06-29T06:15:59.482Z,3128.00
2023-06-29T06:16:59.596Z,3328.00
2023-06-29T06:17:59.738Z,3764.00
2023-06-29T06:18:59.807Z,4048.00
2023-06-29T06:19:59.935Z,4464.00
2023-06-29T06:21:00.063Z,4536.00
2023-06-29T06:22:00.215Z,4624.00
2023-06-29T06:23:00.331Z,4740.00
2023-06-29T06:24:00.461Z,4900.00
2023-06-29T06:25:00.572Z,5188.00
2023-06-29T06:26:00.709Z,5580.00
2023-06-29T06:27:00.828Z,5428.00
2023-06-29T06:28:00.979Z,5848.00
2023-06-29T06:29:01.077Z,5200.00
2023-06-29T06:30:01.243Z,5068.00
2023-06-29T06:31:01.424Z,5112.00
2023-06-29T06:32:01.536Z,5144.00
2023-06-29T06:33:01.557Z,4728.00
2023-06-29T06:34:01.729Z,4292.00
2023-06-29T06:35:01.806Z,3644.00
2023-06-29T06:36:01.932Z,3728.00
2023-06-29T06:37:02.056Z,4124.00
2023-06-29T06:38:02.238Z,4228.00
2023-06-29T06:39:02.350Z,4488.00
2023-06-29T06:40:02.505Z,4532.00
2023-06-29T06:41:02.586Z,4596.00
2023-06-29T06:42:02.707Z,4652.00
2023-06-29T06:43:02.822Z,4696.00
2023-06-29T06:44:02.925Z,4576.00
2023-06-29T06:45:03.145Z,4332.00
2023-06-29T06:46:03.196Z,4408.00
2023-06-29T06:47:03.399Z,4164.00
2023-06-29T06:48:03.522Z,4212.00
2023-06-29T06:49:03.603Z,4208.00
2023-06-29T06:50:03.846Z,4444.00
2023-06-29T06:51:03.889Z,4860.00
2023-06-29T06:52:04.003Z,5776.00
2023-06-29T06:53:04.167Z,5780.00
2023-06-29T06:54:04.296Z,6160.00
2023-06-29T06:55:04.395Z,6328.00
2023-06-29T06:56:04.487Z,6180.00
2023-06-29T06:57:04.626Z,6056.00
2023-06-29T06:58:04.729Z,5860.00
2023-06-29T06:59:04.894Z,5736.00
2023-06-29T07:00:04.974Z,4744.00
2023-06-29T07:01:05.133Z,4564.00
2023-06-29T07:02:05.257Z,4196.00
2023-06-29T07:03:05.504Z,4324.00
2023-06-29T07:04:05.557Z,4632.00
2023-06-29T07:05:05.639Z,5368.00
2023-06-29T07:06:05.769Z,5420.00
2023-06-29T07:07:05.990Z,5300.00
2023-06-29T07:08:06.049Z,4608.00
2023-06-29T07:09:06.251Z,4156.00
2023-06-29T07:10:06.332Z,3724.00
2023-06-29T07:11:06.469Z,3568.00
2023-06-29T07:12:06.603Z,3300.00
2023-06-29T07:13:06.745Z,3404.00
2023-06-29T07:14:06.936Z,3544.00
2023-06-29T07:15:07.036Z,3924.00
2023-06-29T07:16:07.165Z,3732.00
2023-06-29T07:17:07.346Z,3728.00
2023-06-29T07:18:07.419Z,3820.00
2023-06-29T07:24:08.668Z,4484.00
2023-06-29T07:25:08.320Z,4716.00
2023-06-29T07:26:08.419Z,5420.00
2023-06-29T07:27:08.566Z,5220.00
2023-06-29T07:28:08.727Z,5956.00
2023-06-29T07:29:08.900Z,6460.00
2023-06-29T07:30:09.026Z,6048.00
2023-06-29T07:31:09.113Z,5276.00
2023-06-29T07:32:09.219Z,4708.00
2023-06-29T07:33:09.373Z,4472.00
2023-06-29T07:34:09.488Z,4292.00
2023-06-29T07:35:09.568Z,4408.00
2023-06-29T07:36:09.723Z,4624.00
2023-06-29T07:37:09.893Z,5036.00
2023-06-29T07:38:09.976Z,5428.00
2023-06-29T07:39:10.125Z,5716.00
2023-06-29T07:40:10.205Z,5424.00
2023-06-29T07:41:10.394Z,4892.00
2023-06-29T07:42:10.468Z,5284.00
2023-06-29T07:43:10.610Z,5412.00
2023-06-29T07:44:10.745Z,5644.00
2023-06-29T07:45:10.873Z,5960.00
2023-06-29T07:46:11.249Z,6304.00
2023-06-29T07:47:11.231Z,6528.00
2023-06-29T07:48:11.412Z,6872.00
2023-06-29T07:49:11.443Z,8144.00
2023-06-29T07:50:11.615Z,8776.00
2023-06-29T07:51:11.763Z,9852.00
2023-06-29T07:52:11.840Z,10408.00
2023-06-29T07:53:11.996Z,10400.00
2023-06-29T07:54:12.126Z,10776.00
2023-06-29T07:55:12.262Z,10580.00
2023-06-29T07:56:12.406Z,10428.00
2023-06-29T07:59:12.805Z,10604.00
2023-06-29T08:00:12.916Z,10896.00
2023-06-29T08:01:13.226Z,11208.00
2023-06-29T08:02:13.234Z,11932.00
2023-06-29T08:03:13.350Z,12352.00
2023-06-29T08:04:13.516Z,12700.00
2023-06-29T08:07:14.039Z,12668.00
2023-06-29T08:08:14.102Z,12204.00
2023-06-29T08:09:14.053Z,11592.00
2023-06-29T08:10:14.248Z,12208.00
2023-06-29T08:11:14.311Z,12300.00
2023-06-29T08:12:14.463Z,12920.00
2023-06-29T08:13:14.626Z,13840.00
2023-06-29T08:14:14.724Z,14544.00
2023-06-29T08:15:14.861Z,14124.00
2023-06-29T08:16:15.015Z,13336.00
2023-06-29T08:17:15.167Z,13788.00
2023-06-29T08:18:15.262Z,13448.00
2023-06-29T08:19:15.517Z,12340.00
2023-06-29T08:20:15.559Z,12472.00
2023-06-29T08:21:15.676Z,13240.00
2023-06-29T08:22:15.835Z,13044.00
2023-06-29T08:23:15.931Z,12672.00
2023-06-29T08:24:17.734Z,11692.00
2023-06-29T08:25:16.178Z,11792.00
2023-06-29T08:26:16.319Z,12316.00
2023-06-29T08:27:16.476Z,13588.00
2023-06-29T08:28:16.569Z,16128.00
2023-06-29T08:29:16.769Z,18624.00
2023-06-29T08:30:16.922Z,16864.00
2023-06-29T08:31:17.019Z,17408.00
2023-06-29T08:32:17.199Z,18816.00
2023-06-29T08:33:17.351Z,18560.00
2023-06-29T08:34:17.380Z,17696.00
2023-06-29T08:35:17.458Z,18432.00
2023-06-29T08:36:17.594Z,19616.00
2023-06-29T08:37:17.744Z,22592.00
2023-06-29T08:38:17.949Z,20000.00
2023-06-29T08:39:18.025Z,21184.00
2023-06-29T08:40:18.152Z,19040.00
2023-06-29T08:41:18.299Z,17280.00
2023-06-29T08:42:18.424Z,22048.00
2023-06-29T08:43:18.609Z,17088.00
2023-06-29T08:44:18.753Z,16576.00
2023-06-29T08:45:18.836Z,14632.00
2023-06-29T08:46:18.989Z,17760.00
2023-06-29T08:47:19.093Z,18176.00
2023-06-29T08:48:19.238Z,19424.00
2023-06-29T08:49:19.483Z,17376.00
2023-06-29T08:50:19.508Z,17920.00
2023-06-29T08:51:19.614Z,18752.00
2023-06-29T08:52:19.718Z,18944.00
2023-06-29T08:53:19.937Z,16512.00
2023-06-29T08:54:20.056Z,18464.00
2023-06-29T08:55:20.098Z,20160.00
2023-06-29T08:56:20.196Z,24160.00
2023-06-29T08:57:20.348Z,24480.00
2023-06-29T08:58:20.470Z,27872.00
2023-06-29T08:59:20.636Z,14336.00
2023-06-29T09:00:20.742Z,14412.00
2023-06-29T09:01:20.932Z,13728.00
2023-06-29T09:02:21.046Z,17504.00
2023-06-29T09:03:21.247Z,17632.00
2023-06-29T09:04:21.368Z,21216.00
2023-06-29T09:05:21.482Z,17728.00
2023-06-29T09:06:21.592Z,22656.00
2023-06-29T09:07:21.764Z,21536.00
2023-06-29T09:08:21.905Z,19008.00
2023-06-29T09:09:21.990Z,18784.00
2023-06-29T09:10:22.741Z,15360.00
2023-06-29T09:11:22.262Z,13472.00
2023-06-29T09:12:22.398Z,14384.00
2023-06-29T09:13:22.517Z,16608.00
2023-06-29T09:14:22.645Z,18560.00
2023-06-29T09:15:22.828Z,21408.00
2023-06-29T09:16:22.946Z,19872.00
2023-06-29T09:17:23.409Z,18752.00
2023-06-29T09:18:23.188Z,17856.00
2023-06-29T09:19:23.312Z,18656.00
2023-06-29T09:20:23.501Z,20928.00
2023-06-29T09:21:23.589Z,24256.00
2023-06-29T09:22:23.757Z,21472.00
2023-06-29T09:23:23.881Z,18624.00
2023-06-29T09:24:23.982Z,17696.00
2023-06-29T09:25:34.081Z,18688.00
2023-06-29T09:26:25.299Z,19424.00
2023-06-29T09:27:24.364Z,18272.00
2023-06-29T09:28:24.520Z,16768.00
2023-06-29T09:29:24.625Z,13728.00
2023-06-29T09:30:24.900Z,13868.00
2023-06-29T09:31:24.905Z,12852.00
2023-06-29T09:32:25.090Z,12176.00
2023-06-29T09:33:25.162Z,11204.00
2023-06-29T09:34:25.303Z,10524.00
2023-06-29T09:35:25.437Z,10980.00
2023-06-29T09:36:25.599Z,11756.00
2023-06-29T09:37:25.708Z,12480.00
2023-06-29T09:38:25.838Z,11728.00
2023-06-29T09:39:26.021Z,11108.00
2023-06-29T09:40:26.123Z,11276.00
2023-06-29T09:41:26.261Z,11384.00
2023-06-29T09:42:26.480Z,11708.00
2023-06-29T09:43:26.547Z,11232.00
2023-06-29T09:44:26.680Z,11032.00
2023-06-29T09:45:26.804Z,10808.00
2023-06-29T09:46:29.560Z,10824.00
2023-06-29T09:49:27.372Z,11208.00
2023-06-29T09:50:27.653Z,11348.00
2023-06-29T09:51:27.611Z,11284.00
2023-06-29T09:52:27.816Z,11780.00
2023-06-29T09:53:27.843Z,11964.00
2023-06-29T09:54:27.978Z,11736.00
2023-06-29T09:55:28.123Z,11536.00
2023-06-29T09:56:28.260Z,12072.00
2023-06-29T09:57:28.437Z,12292.00
2023-06-29T09:58:28.524Z,12356.00
2023-06-29T09:59:28.749Z,13632.00
2023-06-29T10:00:28.864Z,14852.00
2023-06-29T10:01:28.996Z,14464.00
2023-06-29T10:02:29.183Z,14460.00
2023-06-29T10:03:29.486Z,13728.00
2023-06-29T10:04:29.343Z,16416.00
2023-06-29T10:05:29.444Z,18848.00
2023-06-29T10:06:29.568Z,19680.00
2023-06-29T10:07:29.734Z,24224.00
2023-06-29T10:08:29.985Z,24416.00
2023-06-29T10:09:29.962Z,27648.00
2023-06-29T10:10:30.094Z,28800.00
2023-06-29T10:11:30.179Z,29920.00
2023-06-29T10:12:30.318Z,33120.00
2023-06-29T10:13:30.548Z,33152.00
2023-06-29T10:14:30.598Z,39552.00
2023-06-29T10:15:30.779Z,41248.00
2023-06-29T10:16:30.897Z,37024.00
2023-06-29T10:17:31.084Z,36448.00
2023-06-29T10:18:31.142Z,42304.00
2023-06-29T10:19:31.348Z,40832.00
2023-06-29T10:20:31.400Z,33088.00
2023-06-29T10:21:31.526Z,39648.00
2023-06-29T10:22:31.667Z,17952.00
2023-06-29T10:23:31.932Z,32768.00
2023-06-29T10:24:31.935Z,17248.00
2023-06-29T10:25:32.085Z,14496.00
2023-06-29T10:26:32.224Z,16480.00
2023-06-29T10:27:32.361Z,15840.00
2023-06-29T10:28:32.534Z,17376.00
2023-06-29T10:29:32.617Z,16672.00
2023-06-29T10:30:32.799Z,14628.00
2023-06-29T10:31:33.008Z,11992.00
2023-06-29T10:32:33.102Z,10628.00
2023-06-29T10:33:33.315Z,10048.00
2023-06-29T10:34:33.288Z,10088.00
2023-06-29T10:35:33.443Z,9244.00
2023-06-29T10:36:33.609Z,9076.00
2023-06-29T10:37:33.732Z,9400.00
2023-06-29T10:38:34.057Z,9360.00
2023-06-29T10:39:33.988Z,9856.00
2023-06-29T10:40:34.123Z,9964.00
2023-06-29T10:41:34.258Z,8932.00
2023-06-29T10:42:34.403Z,8376.00
2023-06-29T10:43:34.641Z,8336.00
2023-06-29T10:44:34.690Z,8576.00
2023-06-29T10:45:34.816Z,8388.00
2023-06-29T10:46:34.978Z,8240.00
2023-06-29T10:47:35.152Z,8916.00
2023-06-29T10:48:47.875Z,9720.00
2023-06-29T10:49:36.360Z,10404.00
2023-06-29T10:50:35.616Z,11696.00
2023-06-29T10:51:35.609Z,11532.00
2023-06-29T10:52:35.756Z,11880.00
2023-06-29T10:53:35.892Z,12456.00
2023-06-29T10:54:36.067Z,12604.00
2023-06-29T10:55:36.157Z,12384.00
2023-06-29T10:56:36.293Z,11900.00
2023-06-29T10:57:36.447Z,12432.00
2023-06-29T10:58:36.604Z,12948.00
2023-06-29T10:59:36.725Z,13712.00
2023-06-29T11:00:36.846Z,13696.00
2023-06-29T11:01:37.021Z,13640.00
2023-06-29T11:02:37.139Z,13196.00
2023-06-29T11:03:37.365Z,12924.00
2023-06-29T11:04:37.462Z,12388.00
2023-06-29T11:05:37.500Z,10808.00
2023-06-29T11:06:37.653Z,9100.00
2023-06-29T11:07:37.795Z,8004.00
2023-06-29T11:08:37.906Z,7136.00
2023-06-29T11:09:38.046Z,8048.00
2023-06-29T11:10:38.303Z,8404.00
2023-06-29T11:11:38.277Z,9096.00
2023-06-29T11:12:38.414Z,9268.00
2023-06-29T11:13:38.512Z,9136.00
2023-06-29T11:14:38.668Z,9352.00
2023-06-29T11:15:38.819Z,9700.00
2023-06-29T11:16:38.923Z,10020.00
2023-06-29T11:17:39.075Z,9968.00
2023-06-29T11:18:39.158Z,9656.00
2023-06-29T11:19:39.352Z,9228.00
2023-06-29T11:20:39.633Z,8684.00
2023-06-29T11:21:39.591Z,8628.00
2023-06-29T11:22:39.702Z,8428.00
2023-06-29T11:23:39.838Z,7784.00
2023-06-29T11:24:39.975Z,7332.00
2023-06-29T11:25:40.150Z,7276.00
2023-06-29T11:26:40.231Z,7268.00
2023-06-29T11:27:40.377Z,6904.00
2023-06-29T11:28:40.504Z,6856.00
2023-06-29T11:29:40.655Z,6856.00
2023-06-29T11:30:40.883Z,6860.00
2023-06-29T11:31:41.079Z,6932.00
2023-06-29T11:32:41.126Z,6912.00
2023-06-29T11:33:41.174Z,6632.00
2023-06-29T11:34:41.296Z,6196.00
2023-06-29T11:35:41.499Z,5908.00
2023-06-29T11:36:41.546Z,5684.00
2023-06-29T11:37:41.682Z,5416.00
2023-06-29T11:38:41.845Z,5428.00
2023-06-29T11:39:41.935Z,5068.00
2023-06-29T11:40:42.065Z,4872.00
2023-06-29T11:41:42.350Z,5048.00
2023-06-29T11:42:42.407Z,5272.00
2023-06-29T11:43:42.460Z,5428.00
2023-06-29T11:44:42.592Z,5540.00
2023-06-29T11:45:42.900Z,6028.00
2023-06-29T11:46:42.880Z,6412.00
2023-06-29T11:47:43.137Z,6660.00
2023-06-29T11:48:43.131Z,6704.00
2023-06-29T11:49:43.241Z,6980.00
2023-06-29T11:50:43.521Z,7168.00
2023-06-29T11:51:43.592Z,7208.00
2023-06-29T11:52:43.673Z,7004.00
2023-06-29T11:53:43.757Z,6928.00
2023-06-29T11:54:43.901Z,7128.00
2023-06-29T11:55:44.311Z,6996.00
2023-06-29T11:56:44.180Z,6896.00
2023-06-29T11:57:44.272Z,6692.00
2023-06-29T11:58:44.412Z,6352.00
2023-06-29T11:59:44.545Z,6148.00
2023-06-29T12:00:44.716Z,6056.00
2023-06-29T12:01:44.891Z,5920.00
2023-06-29T12:02:45.017Z,6084.00
2023-06-29T12:03:45.276Z,5780.00
2023-06-29T12:04:45.300Z,5588.00
2023-06-29T12:05:45.634Z,6092.00
2023-06-29T12:06:45.592Z,6072.00
2023-06-29T12:07:45.782Z,5600.00
2023-06-29T12:08:45.833Z,5672.00
2023-06-29T12:09:45.887Z,5892.00
2023-06-29T12:10:46.067Z,6312.00
2023-06-29T12:11:46.168Z,6828.00
2023-06-29T12:12:46.298Z,8152.00
2023-06-29T12:13:46.431Z,9740.00
2023-06-29T12:14:46.588Z,10600.00
2023-06-29T12:18:47.222Z,11528.00
2023-06-29T12:20:03.966Z,12696.00
2023-06-29T12:20:48.766Z,13112.00
2023-06-29T12:21:47.666Z,12100.00
2023-06-29T12:22:47.648Z,11956.00
2023-06-29T12:23:47.769Z,11168.00
2023-06-29T12:24:47.876Z,10368.00
2023-06-29T12:25:48.194Z,10448.00
2023-06-29T12:26:48.192Z,10736.00
2023-06-29T12:27:48.301Z,10860.00
2023-06-29T12:28:48.398Z,10548.00
2023-06-29T12:29:48.525Z,9236.00
2023-06-29T12:30:49.002Z,8004.00
2023-06-29T12:31:48.838Z,7496.00
2023-06-29T12:32:48.987Z,7816.00
2023-06-29T12:33:49.028Z,9908.00
2023-06-29T12:34:50.341Z,12404.00
2023-06-29T12:35:49.591Z,13604.00